sensor_id;sensor_type;location;lat;lon;timestamp;P1;durP1;ratioP1;P2;durP2;ratioP2
9409;SDS011;4744;52.576;13.568;2023-08-07T00:00:26;2.70;;;2.17;;
9409;SDS011;4744;52.576;13.568;2023-08-07T00:02:53;2.40;;;2.10;;
9409;SDS011;4744;52.576;13.568;2023-08-07T00:05:20;2.00;;;1.80;;
9409;SDS011;4744;52.576;13.568;2023-08-07T00:07:49;1.80;;;1.70;;
9409;SDS011;4744;52.576;13.568;2023-08-07T00:10:15;3.22;;;2.20;;
9409;SDS011;4744;52.576;13.568;2023-08-07T00:12:42;2.40;;;2.15;;
9409;SDS011;4744;52.576;13.568;2023-08-07T00:15:10;2.38;;;2.28;;
9409;SDS011;4744;52.576;13.568;2023-08-07T00:17:37;2.55;;;2.10;;
9409;SDS011;4744;52.576;13.568;2023-08-07T00:20:04;2.00;;;1.90;;
9409;SDS011;4744;52.576;13.568;2023-08-07T00:22:32;2.42;;;2.20;;
9409;SDS011;4744;52.576;13.568;2023-08-07T00:25:01;2.40;;;2.20;;
9409;SDS011;4744;52.576;13.568;2023-08-07T00:27:28;4.55;;;2.15;;
9409;SDS011;4744;52.576;13.568;2023-08-07T00:29:55;2.40;;;2.20;;
9409;SDS011;4744;52.576;13.568;2023-08-07T00:32:22;4.22;;;2.25;;
9409;SDS011;4744;52.576;13.568;2023-08-07T00:34:49;3.15;;;2.30;;
9409;SDS011;4744;52.576;13.568;2023-08-07T00:37:16;4.28;;;2.22;;
9409;SDS011;4744;52.576;13.568;2023-08-07T00:39:43;5.00;;;2.30;;
9409;SDS011;4744;52.576;13.568;2023-08-07T00:42:11;2.47;;;2.28;;
9409;SDS011;4744;52.576;13.568;2023-08-07T00:44:38;2.75;;;2.40;;
9409;SDS011;4744;52.576;13.568;2023-08-07T00:47:05;2.50;;;2.30;;
9409;SDS011;4744;52.576;13.568;2023-08-07T00:49:32;2.50;;;2.30;;
9409;SDS011;4744;52.576;13.568;2023-08-07T00:52:00;3.03;;;2.40;;
9409;SDS011;4744;52.576;13.568;2023-08-07T00:54:29;2.65;;;2.45;;
9409;SDS011;4744;52.576;13.568;2023-08-07T00:56:56;3.10;;;2.47;;
9409;SDS011;4744;52.576;13.568;2023-08-07T00:59:30;3.00;;;2.42;;
9409;SDS011;4744;52.576;13.568;2023-08-07T01:01:57;3.13;;;2.45;;
9409;SDS011;4744;52.576;13.568;2023-08-07T01:04:24;2.50;;;2.30;;
9409;SDS011;4744;52.576;13.568;2023-08-07T01:06:52;3.08;;;2.40;;
9409;SDS011;4744;52.576;13.568;2023-08-07T01:09:18;3.00;;;2.38;;
9409;SDS011;4744;52.576;13.568;2023-08-07T01:11:47;2.28;;;2.17;;
9409;SDS011;4744;52.576;13.568;2023-08-07T01:14:19;2.60;;;2.15;;
9409;SDS011;4744;52.576;13.568;2023-08-07T01:16:57;2.45;;;2.15;;
9409;SDS011;4744;52.576;13.568;2023-08-07T01:19:28;2.50;;;2.30;;
9409;SDS011;4744;52.576;13.568;2023-08-07T01:22:07;2.80;;;2.50;;
9409;SDS011;4744;52.576;13.568;2023-08-07T01:24:35;4.45;;;2.58;;
9409;SDS011;4744;52.576;13.568;2023-08-07T01:27:07;2.50;;;2.10;;
9409;SDS011;4744;52.576;13.568;2023-08-07T01:29:42;2.10;;;2.00;;
9409;SDS011;4744;52.576;13.568;2023-08-07T01:32:19;2.08;;;1.98;;
9409;SDS011;4744;52.576;13.568;2023-08-07T01:34:50;3.03;;;2.28;;
9409;SDS011;4744;52.576;13.568;2023-08-07T01:37:21;2.20;;;2.00;;
9409;SDS011;4744;52.576;13.568;2023-08-07T01:39:50;2.20;;;2.10;;
9409;SDS011;4744;52.576;13.568;2023-08-07T01:42:21;2.30;;;2.10;;
9409;SDS011;4744;52.576;13.568;2023-08-07T01:44:50;2.58;;;2.33;;
9409;SDS011;4744;52.576;13.568;2023-08-07T01:47:18;2.30;;;2.13;;
9409;SDS011;4744;52.576;13.568;2023-08-07T01:49:45;2.72;;;2.53;;
9409;SDS011;4744;52.576;13.568;2023-08-07T01:52:11;2.40;;;2.00;;
9409;SDS011;4744;52.576;13.568;2023-08-07T01:54:40;4.57;;;2.72;;
9409;SDS011;4744;52.576;13.568;2023-08-07T01:57:07;2.70;;;2.50;;
9409;SDS011;4744;52.576;13.568;2023-08-07T01:59:34;2.40;;;2.20;;
9409;SDS011;4744;52.576;13.568;2023-08-07T02:02:01;2.78;;;2.55;;
9409;SDS011;4744;52.576;13.568;2023-08-07T02:04:28;3.08;;;2.70;;
9409;SDS011;4744;52.576;13.568;2023-08-07T02:06:55;4.57;;;2.50;;
9409;SDS011;4744;52.576;13.568;2023-08-07T02:09:22;2.60;;;2.40;;
9409;SDS011;4744;52.576;13.568;2023-08-07T02:11:50;4.68;;;2.72;;
9409;SDS011;4744;52.576;13.568;2023-08-07T02:14:17;2.53;;;2.33;;
9409;SDS011;4744;52.576;13.568;2023-08-07T02:16:44;4.47;;;3.05;;
9409;SDS011;4744;52.576;13.568;2023-08-07T02:19:11;2.58;;;2.38;;
9409;SDS011;4744;52.576;13.568;2023-08-07T02:21:38;5.25;;;2.70;;
9409;SDS011;4744;52.576;13.568;2023-08-07T02:24:05;2.95;;;2.70;;
9409;SDS011;4744;52.576;13.568;2023-08-07T02:26:32;3.47;;;2.53;;
9409;SDS011;4744;52.576;13.568;2023-08-07T02:29:00;3.78;;;3.00;;
9409;SDS011;4744;52.576;13.568;2023-08-07T02:31:29;3.75;;;3.00;;
9409;SDS011;4744;52.576;13.568;2023-08-07T02:33:55;3.85;;;3.10;;
9409;SDS011;4744;52.576;13.568;2023-08-07T02:36:22;3.22;;;2.92;;
9409;SDS011;4744;52.576;13.568;2023-08-07T02:38:49;3.47;;;3.17;;
9409;SDS011;4744;52.576;13.568;2023-08-07T02:41:16;3.03;;;2.83;;
9409;SDS011;4744;52.576;13.568;2023-08-07T02:43:43;3.38;;;2.75;;
9409;SDS011;4744;52.576;13.568;2023-08-07T02:46:11;4.85;;;3.30;;
9409;SDS011;4744;52.576;13.568;2023-08-07T02:48:38;3.35;;;2.97;;
9409;SDS011;4744;52.576;13.568;2023-08-07T02:51:05;4.18;;;3.25;;
9409;SDS011;4744;52.576;13.568;2023-08-07T02:53:32;4.10;;;3.67;;
9409;SDS011;4744;52.576;13.568;2023-08-07T02:55:59;4.32;;;3.38;;
9409;SDS011;4744;52.576;13.568;2023-08-07T02:58:26;5.25;;;3.72;;
9409;SDS011;4744;52.576;13.568;2023-08-07T03:00:53;5.72;;;4.10;;
9409;SDS011;4744;52.576;13.568;2023-08-07T03:03:21;3.92;;;3.63;;
9409;SDS011;4744;52.576;13.568;2023-08-07T03:05:48;3.88;;;3.58;;
9409;SDS011;4744;52.576;13.568;2023-08-07T03:08:16;4.55;;;3.80;;
9409;SDS011;4744;52.576;13.568;2023-08-07T03:10:49;4.72;;;4.15;;
9409;SDS011;4744;52.576;13.568;2023-08-07T03:13:17;4.90;;;3.60;;
9409;SDS011;4744;52.576;13.568;2023-08-07T03:15:47;4.32;;;3.80;;
9409;SDS011;4744;52.576;13.568;2023-08-07T03:18:15;4.38;;;3.97;;
9409;SDS011;4744;52.576;13.568;2023-08-07T03:20:44;4.57;;;4.18;;
9409;SDS011;4744;52.576;13.568;2023-08-07T03:23:10;7.57;;;4.30;;
9409;SDS011;4744;52.576;13.568;2023-08-07T03:25:37;5.15;;;4.32;;
9409;SDS011;4744;52.576;13.568;2023-08-07T03:28:04;6.97;;;4.45;;
9409;SDS011;4744;52.576;13.568;2023-08-07T03:30:35;5.35;;;4.18;;
9409;SDS011;4744;52.576;13.568;2023-08-07T03:33:03;4.60;;;4.03;;
9409;SDS011;4744;52.576;13.568;2023-08-07T03:35:31;4.97;;;3.75;;
9409;SDS011;4744;52.576;13.568;2023-08-07T03:37:59;4.30;;;3.90;;
9409;SDS011;4744;52.576;13.568;2023-08-07T03:40:26;5.97;;;4.25;;
9409;SDS011;4744;52.576;13.568;2023-08-07T03:42:53;4.57;;;4.18;;
9409;SDS011;4744;52.576;13.568;2023-08-07T03:45:20;4.55;;;4.15;;
9409;SDS011;4744;52.576;13.568;2023-08-07T03:47:47;4.45;;;3.92;;
9409;SDS011;4744;52.576;13.568;2023-08-07T03:50:14;6.07;;;4.13;;
9409;SDS011;4744;52.576;13.568;2023-08-07T03:52:41;4.28;;;3.78;;
9409;SDS011;4744;52.576;13.568;2023-08-07T03:55:10;6.55;;;4.20;;
9409;SDS011;4744;52.576;13.568;2023-08-07T03:57:36;9.75;;;4.18;;
9409;SDS011;4744;52.576;13.568;2023-08-07T04:00:04;6.90;;;4.15;;
9409;SDS011;4744;52.576;13.568;2023-08-07T04:02:35;7.72;;;4.18;;
9409;SDS011;4744;52.576;13.568;2023-08-07T04:05:02;4.95;;;4.13;;
9409;SDS011;4744;52.576;13.568;2023-08-07T04:07:29;3.92;;;3.60;;
9409;SDS011;4744;52.576;13.568;2023-08-07T04:09:56;4.50;;;4.00;;
9409;SDS011;4744;52.576;13.568;2023-08-07T04:12:24;4.38;;;3.97;;
9409;SDS011;4744;52.576;13.568;2023-08-07T04:14:51;4.75;;;4.18;;
9409;SDS011;4744;52.576;13.568;2023-08-07T04:17:18;4.68;;;4.10;;
9409;SDS011;4744;52.576;13.568;2023-08-07T04:19:45;5.07;;;4.63;;
9409;SDS011;4744;52.576;13.568;2023-08-07T04:22:12;4.53;;;4.10;;
9409;SDS011;4744;52.576;13.568;2023-08-07T04:24:39;4.70;;;4.20;;
9409;SDS011;4744;52.576;13.568;2023-08-07T04:27:06;7.80;;;3.90;;
9409;SDS011;4744;52.576;13.568;2023-08-07T04:29:38;5.05;;;3.65;;
9409;SDS011;4744;52.576;13.568;2023-08-07T04:32:05;5.43;;;4.10;;
9409;SDS011;4744;52.576;13.568;2023-08-07T04:34:33;5.35;;;4.00;;
9409;SDS011;4744;52.576;13.568;2023-08-07T04:37:00;4.35;;;3.70;;
9409;SDS011;4744;52.576;13.568;2023-08-07T04:39:27;5.13;;;3.67;;
9409;SDS011;4744;52.576;13.568;2023-08-07T04:41:55;5.00;;;3.78;;
9409;SDS011;4744;52.576;13.568;2023-08-07T04:44:22;4.25;;;3.83;;
9409;SDS011;4744;52.576;13.568;2023-08-07T04:46:50;3.78;;;3.47;;
9409;SDS011;4744;52.576;13.568;2023-08-07T04:49:17;6.22;;;3.80;;
9409;SDS011;4744;52.576;13.568;2023-08-07T04:51:44;5.43;;;4.00;;
9409;SDS011;4744;52.576;13.568;2023-08-07T04:54:11;6.07;;;3.70;;
9409;SDS011;4744;52.576;13.568;2023-08-07T04:56:38;5.72;;;3.60;;
9409;SDS011;4744;52.576;13.568;2023-08-07T04:59:05;4.20;;;3.75;;
9409;SDS011;4744;52.576;13.568;2023-08-07T05:01:33;6.32;;;3.65;;
9409;SDS011;4744;52.576;13.568;2023-08-07T05:04:01;5.78;;;3.67;;
9409;SDS011;4744;52.576;13.568;2023-08-07T05:06:29;5.47;;;3.65;;
9409;SDS011;4744;52.576;13.568;2023-08-07T05:08:56;5.45;;;3.40;;
9409;SDS011;4744;52.576;13.568;2023-08-07T05:11:23;3.63;;;3.22;;
9409;SDS011;4744;52.576;13.568;2023-08-07T05:13:50;3.78;;;3.47;;
9409;SDS011;4744;52.576;13.568;2023-08-07T05:16:17;4.55;;;3.50;;
9409;SDS011;4744;52.576;13.568;2023-08-07T05:18:44;3.88;;;3.58;;
9409;SDS011;4744;52.576;13.568;2023-08-07T05:21:12;6.68;;;3.60;;
9409;SDS011;4744;52.576;13.568;2023-08-07T05:23:39;4.45;;;3.40;;
9409;SDS011;4744;52.576;13.568;2023-08-07T05:26:06;5.85;;;3.13;;
9409;SDS011;4744;52.576;13.568;2023-08-07T05:28:33;4.30;;;2.80;;
9409;SDS011;4744;52.576;13.568;2023-08-07T05:31:00;3.75;;;3.20;;
9409;SDS011;4744;52.576;13.568;2023-08-07T05:33:27;4.68;;;3.15;;
9409;SDS011;4744;52.576;13.568;2023-08-07T05:35:53;3.67;;;3.00;;
9409;SDS011;4744;52.576;13.568;2023-08-07T05:38:22;3.80;;;3.40;;
9409;SDS011;4744;52.576;13.568;2023-08-07T05:40:49;4.68;;;3.10;;
9409;SDS011;4744;52.576;13.568;2023-08-07T05:43:16;5.18;;;3.00;;
9409;SDS011;4744;52.576;13.568;2023-08-07T05:45:43;3.58;;;2.90;;
9409;SDS011;4744;52.576;13.568;2023-08-07T05:48:11;4.20;;;3.10;;
9409;SDS011;4744;52.576;13.568;2023-08-07T05:50:38;4.25;;;3.28;;
9409;SDS011;4744;52.576;13.568;2023-08-07T05:53:05;3.60;;;3.28;;
9409;SDS011;4744;52.576;13.568;2023-08-07T05:55:33;3.83;;;2.90;;
9409;SDS011;4744;52.576;13.568;2023-08-07T05:58:00;4.80;;;3.35;;
9409;SDS011;4744;52.576;13.568;2023-08-07T06:00:27;3.42;;;3.10;;
9409;SDS011;4744;52.576;13.568;2023-08-07T06:02:54;3.15;;;2.80;;
9409;SDS011;4744;52.576;13.568;2023-08-07T06:05:21;3.38;;;2.80;;
9409;SDS011;4744;52.576;13.568;2023-08-07T06:07:48;5.28;;;2.83;;
9409;SDS011;4744;52.576;13.568;2023-08-07T06:10:15;5.80;;;2.78;;
9409;SDS011;4744;52.576;13.568;2023-08-07T06:12:43;4.30;;;2.47;;
9409;SDS011;4744;52.576;13.568;2023-08-07T06:15:10;2.85;;;2.63;;
9409;SDS011;4744;52.576;13.568;2023-08-07T06:17:37;2.55;;;2.35;;
9409;SDS011;4744;52.576;13.568;2023-08-07T06:20:05;3.13;;;2.65;;
9409;SDS011;4744;52.576;13.568;2023-08-07T06:22:34;3.00;;;2.63;;
9409;SDS011;4744;52.576;13.568;2023-08-07T06:25:01;3.08;;;2.33;;
9409;SDS011;4744;52.576;13.568;2023-08-07T06:27:28;3.58;;;2.80;;
9409;SDS011;4744;52.576;13.568;2023-08-07T06:29:57;2.70;;;2.50;;
9409;SDS011;4744;52.576;13.568;2023-08-07T06:32:24;4.78;;;2.58;;
9409;SDS011;4744;52.576;13.568;2023-08-07T06:34:51;3.03;;;2.50;;
9409;SDS011;4744;52.576;13.568;2023-08-07T06:37:18;3.72;;;2.78;;
9409;SDS011;4744;52.576;13.568;2023-08-07T06:39:45;4.88;;;2.40;;
9409;SDS011;4744;52.576;13.568;2023-08-07T06:42:12;3.50;;;2.20;;
9409;SDS011;4744;52.576;13.568;2023-08-07T06:44:39;2.67;;;2.47;;
9409;SDS011;4744;52.576;13.568;2023-08-07T06:47:07;3.33;;;2.53;;
9409;SDS011;4744;52.576;13.568;2023-08-07T06:49:34;4.20;;;2.40;;
9409;SDS011;4744;52.576;13.568;2023-08-07T06:52:01;2.45;;;2.25;;
9409;SDS011;4744;52.576;13.568;2023-08-07T06:54:29;5.88;;;2.70;;
9409;SDS011;4744;52.576;13.568;2023-08-07T06:56:55;2.67;;;2.15;;
9409;SDS011;4744;52.576;13.568;2023-08-07T06:59:22;2.25;;;2.05;;
9409;SDS011;4744;52.576;13.568;2023-08-07T07:01:50;2.88;;;2.17;;
9409;SDS011;4744;52.576;13.568;2023-08-07T07:04:18;2.45;;;1.90;;
9409;SDS011;4744;52.576;13.568;2023-08-07T07:06:45;2.85;;;1.85;;
9409;SDS011;4744;52.576;13.568;2023-08-07T07:09:12;2.33;;;2.17;;
9409;SDS011;4744;52.576;13.568;2023-08-07T07:11:41;2.22;;;2.00;;
9409;SDS011;4744;52.576;13.568;2023-08-07T07:14:09;2.75;;;2.17;;
9409;SDS011;4744;52.576;13.568;2023-08-07T07:16:36;2.05;;;1.95;;
9409;SDS011;4744;52.576;13.568;2023-08-07T07:19:03;3.67;;;1.92;;
9409;SDS011;4744;52.576;13.568;2023-08-07T07:21:32;3.22;;;1.85;;
9409;SDS011;4744;52.576;13.568;2023-08-07T07:23:59;2.00;;;1.90;;
9409;SDS011;4744;52.576;13.568;2023-08-07T07:26:27;2.92;;;2.00;;
9409;SDS011;4744;52.576;13.568;2023-08-07T07:28:54;2.20;;;1.70;;
9409;SDS011;4744;52.576;13.568;2023-08-07T07:31:20;1.90;;;1.80;;
9409;SDS011;4744;52.576;13.568;2023-08-07T07:33:47;3.38;;;1.88;;
9409;SDS011;4744;52.576;13.568;2023-08-07T07:36:15;3.22;;;1.98;;
9409;SDS011;4744;52.576;13.568;2023-08-07T07:38:44;2.28;;;1.80;;
9409;SDS011;4744;52.576;13.568;2023-08-07T07:41:12;3.42;;;1.73;;
9409;SDS011;4744;52.576;13.568;2023-08-07T07:43:39;2.13;;;1.65;;
9409;SDS011;4744;52.576;13.568;2023-08-07T07:46:06;1.65;;;1.55;;
9409;SDS011;4744;52.576;13.568;2023-08-07T07:48:33;3.05;;;1.80;;
9409;SDS011;4744;52.576;13.568;2023-08-07T07:51:00;3.10;;;1.73;;
9409;SDS011;4744;52.576;13.568;2023-08-07T07:53:27;2.58;;;1.63;;
9409;SDS011;4744;52.576;13.568;2023-08-07T07:55:56;2.90;;;1.58;;
9409;SDS011;4744;52.576;13.568;2023-08-07T07:58:23;2.88;;;1.80;;
9409;SDS011;4744;52.576;13.568;2023-08-07T08:00:50;1.63;;;1.52;;
9409;SDS011;4744;52.576;13.568;2023-08-07T08:03:18;2.80;;;1.92;;
9409;SDS011;4744;52.576;13.568;2023-08-07T08:05:46;2.55;;;1.73;;
9409;SDS011;4744;52.576;13.568;2023-08-07T08:08:15;2.05;;;1.60;;
9409;SDS011;4744;52.576;13.568;2023-08-07T08:10:42;3.45;;;1.70;;
9409;SDS011;4744;52.576;13.568;2023-08-07T08:13:11;1.70;;;1.60;;
9409;SDS011;4744;52.576;13.568;2023-08-07T08:15:37;4.55;;;1.75;;
9409;SDS011;4744;52.576;13.568;2023-08-07T08:18:04;3.03;;;1.70;;
9409;SDS011;4744;52.576;13.568;2023-08-07T08:20:31;3.13;;;1.70;;
9409;SDS011;4744;52.576;13.568;2023-08-07T08:22:58;5.57;;;1.80;;
9409;SDS011;4744;52.576;13.568;2023-08-07T08:25:25;4.45;;;1.90;;
9409;SDS011;4744;52.576;13.568;2023-08-07T08:27:52;1.70;;;1.60;;
9409;SDS011;4744;52.576;13.568;2023-08-07T08:30:20;1.65;;;1.52;;
9409;SDS011;4744;52.576;13.568;2023-08-07T08:32:47;3.90;;;1.70;;
9409;SDS011;4744;52.576;13.568;2023-08-07T08:35:14;1.92;;;1.65;;
9409;SDS011;4744;52.576;13.568;2023-08-07T08:37:41;2.45;;;1.83;;
9409;SDS011;4744;52.576;13.568;2023-08-07T08:40:08;2.58;;;1.63;;
9409;SDS011;4744;52.576;13.568;2023-08-07T08:42:41;2.60;;;1.98;;
9409;SDS011;4744;52.576;13.568;2023-08-07T08:45:10;2.22;;;1.60;;
9409;SDS011;4744;52.576;13.568;2023-08-07T08:47:42;1.92;;;1.83;;
9409;SDS011;4744;52.576;13.568;2023-08-07T08:50:10;2.45;;;2.08;;
9409;SDS011;4744;52.576;13.568;2023-08-07T08:52:41;1.70;;;1.60;;
9409;SDS011;4744;52.576;13.568;2023-08-07T08:55:10;3.55;;;1.73;;
9409;SDS011;4744;52.576;13.568;2023-08-07T08:57:38;1.60;;;1.50;;
9409;SDS011;4744;52.576;13.568;2023-08-07T09:00:06;2.95;;;1.92;;
9409;SDS011;4744;52.576;13.568;2023-08-07T09:02:44;5.85;;;1.83;;
9409;SDS011;4744;52.576;13.568;2023-08-07T09:05:12;2.15;;;2.00;;
9409;SDS011;4744;52.576;13.568;2023-08-07T09:07:40;3.00;;;1.70;;
9409;SDS011;4744;52.576;13.568;2023-08-07T09:10:08;2.75;;;1.90;;
9409;SDS011;4744;52.576;13.568;2023-08-07T09:12:38;2.92;;;1.70;;
9409;SDS011;4744;52.576;13.568;2023-08-07T09:15:07;3.17;;;1.60;;
9409;SDS011;4744;52.576;13.568;2023-08-07T09:17:38;2.15;;;1.95;;
9409;SDS011;4744;52.576;13.568;2023-08-07T09:20:09;3.17;;;1.80;;
9409;SDS011;4744;52.576;13.568;2023-08-07T09:22:38;2.00;;;1.77;;
9409;SDS011;4744;52.576;13.568;2023-08-07T09:25:06;3.95;;;2.00;;
9409;SDS011;4744;52.576;13.568;2023-08-07T09:27:34;1.67;;;1.50;;
9409;SDS011;4744;52.576;13.568;2023-08-07T09:30:04;2.97;;;1.90;;
9409;SDS011;4744;52.576;13.568;2023-08-07T09:32:32;1.70;;;1.60;;
9409;SDS011;4744;52.576;13.568;2023-08-07T09:35:01;3.72;;;1.80;;
9409;SDS011;4744;52.576;13.568;2023-08-07T09:37:30;3.25;;;1.45;;
9409;SDS011;4744;52.576;13.568;2023-08-07T09:39:59;1.73;;;1.63;;
9409;SDS011;4744;52.576;13.568;2023-08-07T09:42:28;1.77;;;1.58;;
9409;SDS011;4744;52.576;13.568;2023-08-07T09:44:57;3.40;;;1.95;;
9409;SDS011;4744;52.576;13.568;2023-08-07T09:47:26;3.13;;;1.80;;
9409;SDS011;4744;52.576;13.568;2023-08-07T09:49:55;4.13;;;1.75;;
9409;SDS011;4744;52.576;13.568;2023-08-07T09:52:22;2.25;;;1.55;;
9409;SDS011;4744;52.576;13.568;2023-08-07T09:54:56;2.17;;;1.63;;
9409;SDS011;4744;52.576;13.568;2023-08-07T09:57:23;1.88;;;1.48;;
9409;SDS011;4744;52.576;13.568;2023-08-07T09:59:51;3.63;;;1.70;;
9409;SDS011;4744;52.576;13.568;2023-08-07T10:02:18;2.35;;;1.40;;
9409;SDS011;4744;52.576;13.568;2023-08-07T10:04:45;2.65;;;1.83;;
9409;SDS011;4744;52.576;13.568;2023-08-07T10:07:13;3.45;;;1.50;;
9409;SDS011;4744;52.576;13.568;2023-08-07T10:09:41;3.58;;;1.70;;
9409;SDS011;4744;52.576;13.568;2023-08-07T10:12:11;2.47;;;1.70;;
9409;SDS011;4744;52.576;13.568;2023-08-07T10:14:38;3.10;;;1.50;;
9409;SDS011;4744;52.576;13.568;2023-08-07T10:17:07;2.15;;;1.58;;
9409;SDS011;4744;52.576;13.568;2023-08-07T10:19:35;2.13;;;1.58;;
9409;SDS011;4744;52.576;13.568;2023-08-07T10:22:04;3.88;;;1.77;;
9409;SDS011;4744;52.576;13.568;2023-08-07T10:24:31;1.70;;;1.60;;
9409;SDS011;4744;52.576;13.568;2023-08-07T10:27:01;1.73;;;1.40;;
9409;SDS011;4744;52.576;13.568;2023-08-07T10:29:30;1.95;;;1.48;;
9409;SDS011;4744;52.576;13.568;2023-08-07T10:31:58;2.25;;;1.50;;
9409;SDS011;4744;52.576;13.568;2023-08-07T10:34:28;1.77;;;1.40;;
9409;SDS011;4744;52.576;13.568;2023-08-07T10:36:55;4.13;;;1.60;;
9409;SDS011;4744;52.576;13.568;2023-08-07T10:39:22;1.50;;;1.40;;
9409;SDS011;4744;52.576;13.568;2023-08-07T10:41:52;2.88;;;1.25;;
9409;SDS011;4744;52.576;13.568;2023-08-07T10:44:20;2.25;;;1.40;;
9409;SDS011;4744;52.576;13.568;2023-08-07T10:46:49;2.42;;;1.35;;
9409;SDS011;4744;52.576;13.568;2023-08-07T10:49:31;2.13;;;1.33;;
9409;SDS011;4744;52.576;13.568;2023-08-07T10:52:01;2.38;;;1.42;;
9409;SDS011;4744;52.576;13.568;2023-08-07T10:54:29;1.77;;;1.40;;
9409;SDS011;4744;52.576;13.568;2023-08-07T10:56:56;2.80;;;1.58;;
9409;SDS011;4744;52.576;13.568;2023-08-07T10:59:25;2.17;;;1.48;;
9409;SDS011;4744;52.576;13.568;2023-08-07T11:01:57;3.25;;;1.50;;
9409;SDS011;4744;52.576;13.568;2023-08-07T11:04:25;3.63;;;1.67;;
9409;SDS011;4744;52.576;13.568;2023-08-07T11:06:52;1.50;;;1.30;;
9409;SDS011;4744;52.576;13.568;2023-08-07T11:09:19;1.73;;;1.45;;
9409;SDS011;4744;52.576;13.568;2023-08-07T11:11:46;1.92;;;1.25;;
9409;SDS011;4744;52.576;13.568;2023-08-07T11:14:15;2.75;;;1.60;;
9409;SDS011;4744;52.576;13.568;2023-08-07T11:16:43;2.58;;;1.60;;
9409;SDS011;4744;52.576;13.568;2023-08-07T11:19:12;1.58;;;1.45;;
9409;SDS011;4744;52.576;13.568;2023-08-07T11:21:41;2.20;;;1.42;;
9409;SDS011;4744;52.576;13.568;2023-08-07T11:24:13;4.20;;;1.40;;
9409;SDS011;4744;52.576;13.568;2023-08-07T11:26:44;2.35;;;1.10;;
9409;SDS011;4744;52.576;13.568;2023-08-07T11:29:15;2.45;;;1.30;;
9409;SDS011;4744;52.576;13.568;2023-08-07T11:31:42;4.75;;;1.52;;
9409;SDS011;4744;52.576;13.568;2023-08-07T11:34:10;2.90;;;1.40;;
9409;SDS011;4744;52.576;13.568;2023-08-07T11:36:41;1.42;;;1.20;;
9409;SDS011;4744;52.576;13.568;2023-08-07T11:39:09;1.70;;;1.10;;
9409;SDS011;4744;52.576;13.568;2023-08-07T11:41:36;4.10;;;1.60;;
9409;SDS011;4744;52.576;13.568;2023-08-07T11:44:03;3.25;;;1.60;;
9409;SDS011;4744;52.576;13.568;2023-08-07T11:46:30;4.20;;;1.80;;
9409;SDS011;4744;52.576;13.568;2023-08-07T11:48:57;2.63;;;1.50;;
9409;SDS011;4744;52.576;13.568;2023-08-07T11:51:24;1.50;;;1.40;;
9409;SDS011;4744;52.576;13.568;2023-08-07T11:53:52;2.30;;;1.58;;
9409;SDS011;4744;52.576;13.568;2023-08-07T11:56:23;3.70;;;1.50;;
9409;SDS011;4744;52.576;13.568;2023-08-07T11:58:50;2.47;;;1.70;;
9409;SDS011;4744;52.576;13.568;2023-08-07T12:01:19;2.53;;;1.70;;
9409;SDS011;4744;52.576;13.568;2023-08-07T12:03:51;2.83;;;1.63;;
9409;SDS011;4744;52.576;13.568;2023-08-07T12:06:19;3.47;;;1.70;;
9409;SDS011;4744;52.576;13.568;2023-08-07T12:08:47;2.40;;;1.50;;
9409;SDS011;4744;52.576;13.568;2023-08-07T12:11:17;1.77;;;1.45;;
9409;SDS011;4744;52.576;13.568;2023-08-07T12:13:45;5.40;;;1.63;;
9409;SDS011;4744;52.576;13.568;2023-08-07T12:16:13;2.78;;;1.60;;
9409;SDS011;4744;52.576;13.568;2023-08-07T12:18:43;2.00;;;1.60;;
9409;SDS011;4744;52.576;13.568;2023-08-07T12:21:11;4.65;;;1.77;;
9409;SDS011;4744;52.576;13.568;2023-08-07T12:23:40;4.47;;;1.80;;
9409;SDS011;4744;52.576;13.568;2023-08-07T12:26:07;3.08;;;1.65;;
9409;SDS011;4744;52.576;13.568;2023-08-07T12:28:36;2.15;;;1.48;;
9409;SDS011;4744;52.576;13.568;2023-08-07T12:31:03;2.45;;;1.75;;
9409;SDS011;4744;52.576;13.568;2023-08-07T12:33:30;3.72;;;1.77;;
9409;SDS011;4744;52.576;13.568;2023-08-07T12:35:57;3.92;;;1.88;;
9409;SDS011;4744;52.576;13.568;2023-08-07T12:38:24;2.50;;;1.50;;
9409;SDS011;4744;52.576;13.568;2023-08-07T12:40:52;3.17;;;1.70;;
9409;SDS011;4744;52.576;13.568;2023-08-07T12:43:19;3.63;;;2.10;;
9409;SDS011;4744;52.576;13.568;2023-08-07T12:45:47;4.32;;;1.90;;
9409;SDS011;4744;52.576;13.568;2023-08-07T12:48:14;3.45;;;1.58;;
9409;SDS011;4744;52.576;13.568;2023-08-07T12:50:41;2.17;;;1.60;;
9409;SDS011;4744;52.576;13.568;2023-08-07T12:53:08;3.28;;;1.67;;
9409;SDS011;4744;52.576;13.568;2023-08-07T12:55:35;3.05;;;1.83;;
9409;SDS011;4744;52.576;13.568;2023-08-07T12:58:02;4.75;;;1.90;;
9409;SDS011;4744;52.576;13.568;2023-08-07T13:00:29;5.25;;;1.83;;
9409;SDS011;4744;52.576;13.568;2023-08-07T13:02:57;4.10;;;1.60;;
9409;SDS011;4744;52.576;13.568;2023-08-07T13:05:24;3.90;;;1.77;;
9409;SDS011;4744;52.576;13.568;2023-08-07T13:07:51;3.83;;;1.90;;
9409;SDS011;4744;52.576;13.568;2023-08-07T13:10:24;4.57;;;1.90;;
9409;SDS011;4744;52.576;13.568;2023-08-07T13:12:53;5.20;;;1.83;;
9409;SDS011;4744;52.576;13.568;2023-08-07T13:15:20;4.85;;;2.20;;
9409;SDS011;4744;52.576;13.568;2023-08-07T13:17:47;5.28;;;2.22;;
9409;SDS011;4744;52.576;13.568;2023-08-07T13:20:15;5.18;;;2.40;;
9409;SDS011;4744;52.576;13.568;2023-08-07T13:22:43;5.13;;;2.30;;
9409;SDS011;4744;52.576;13.568;2023-08-07T13:25:11;4.15;;;1.75;;
9409;SDS011;4744;52.576;13.568;2023-08-07T13:27:38;2.90;;;1.90;;
9409;SDS011;4744;52.576;13.568;2023-08-07T13:30:06;6.03;;;1.95;;
9409;SDS011;4744;52.576;13.568;2023-08-07T13:32:34;4.32;;;1.92;;
9409;SDS011;4744;52.576;13.568;2023-08-07T13:35:02;5.40;;;2.00;;
9409;SDS011;4744;52.576;13.568;2023-08-07T13:37:31;4.20;;;2.20;;
9409;SDS011;4744;52.576;13.568;2023-08-07T13:39:59;6.30;;;2.30;;
9409;SDS011;4744;52.576;13.568;2023-08-07T13:42:28;5.45;;;2.35;;
9409;SDS011;4744;52.576;13.568;2023-08-07T13:44:55;5.32;;;1.95;;
9409;SDS011;4744;52.576;13.568;2023-08-07T13:47:22;4.35;;;2.28;;
9409;SDS011;4744;52.576;13.568;2023-08-07T13:49:50;6.28;;;2.17;;
9409;SDS011;4744;52.576;13.568;2023-08-07T13:52:18;4.63;;;2.15;;
9409;SDS011;4744;52.576;13.568;2023-08-07T13:54:46;6.32;;;2.33;;
9409;SDS011;4744;52.576;13.568;2023-08-07T13:57:13;6.22;;;2.70;;
9409;SDS011;4744;52.576;13.568;2023-08-07T13:59:40;3.72;;;2.08;;
9409;SDS011;4744;52.576;13.568;2023-08-07T14:02:07;5.82;;;2.50;;
9409;SDS011;4744;52.576;13.568;2023-08-07T14:04:34;5.95;;;2.20;;
9409;SDS011;4744;52.576;13.568;2023-08-07T14:07:01;5.38;;;2.25;;
9409;SDS011;4744;52.576;13.568;2023-08-07T14:09:28;5.05;;;2.50;;
9409;SDS011;4744;52.576;13.568;2023-08-07T14:11:57;6.43;;;2.40;;
9409;SDS011;4744;52.576;13.568;2023-08-07T14:14:24;4.32;;;2.45;;
9409;SDS011;4744;52.576;13.568;2023-08-07T14:16:51;5.18;;;2.28;;
9409;SDS011;4744;52.576;13.568;2023-08-07T14:19:22;3.58;;;1.98;;
9409;SDS011;4744;52.576;13.568;2023-08-07T14:21:49;5.40;;;2.38;;
9409;SDS011;4744;52.576;13.568;2023-08-07T14:24:16;4.50;;;2.20;;
9409;SDS011;4744;52.576;13.568;2023-08-07T14:26:43;4.00;;;1.80;;
9409;SDS011;4744;52.576;13.568;2023-08-07T14:29:12;3.40;;;1.95;;
9409;SDS011;4744;52.576;13.568;2023-08-07T14:31:39;5.30;;;2.42;;
9409;SDS011;4744;52.576;13.568;2023-08-07T14:34:06;4.28;;;2.05;;
9409;SDS011;4744;52.576;13.568;2023-08-07T14:36:33;2.42;;;1.80;;
9409;SDS011;4744;52.576;13.568;2023-08-07T14:39:00;5.32;;;2.53;;
9409;SDS011;4744;52.576;13.568;2023-08-07T14:41:27;4.10;;;2.15;;
9409;SDS011;4744;52.576;13.568;2023-08-07T14:43:54;6.15;;;1.80;;
9409;SDS011;4744;52.576;13.568;2023-08-07T14:46:22;4.53;;;1.92;;
9409;SDS011;4744;52.576;13.568;2023-08-07T14:48:50;5.95;;;2.30;;
9409;SDS011;4744;52.576;13.568;2023-08-07T14:51:17;4.00;;;2.15;;
9409;SDS011;4744;52.576;13.568;2023-08-07T14:53:44;6.05;;;2.17;;
9409;SDS011;4744;52.576;13.568;2023-08-07T14:56:10;4.75;;;2.22;;
9409;SDS011;4744;52.576;13.568;2023-08-07T14:58:37;3.67;;;2.08;;
9409;SDS011;4744;52.576;13.568;2023-08-07T15:01:04;6.82;;;1.95;;
9409;SDS011;4744;52.576;13.568;2023-08-07T15:03:33;6.38;;;2.50;;